createdAt,value
2022-10-24T00:00:56.940Z,1.55
2022-10-24T00:03:23.528Z,1.02
2022-10-24T00:05:50.074Z,1.17
2022-10-24T00:08:17.238Z,1.38
2022-10-24T00:10:46.344Z,1.42
2022-10-24T00:13:13.517Z,1.85
2022-10-24T00:15:43.357Z,1.52
2022-10-24T00:18:09.988Z,1.10
2022-10-24T00:20:38.398Z,1.73
2022-10-24T00:23:05.143Z,1.20
2022-10-24T00:25:31.751Z,1.13
2022-10-24T00:27:58.373Z,0.95
2022-10-24T00:30:24.960Z,1.58
2022-10-24T00:32:52.329Z,1.10
2022-10-24T00:35:19.168Z,1.10
2022-10-24T00:37:46.062Z,1.15
2022-10-24T00:40:14.993Z,1.23
2022-10-24T00:42:41.674Z,0.90
2022-10-24T00:48:08.260Z,1.05
2022-10-24T00:50:34.839Z,1.20
2022-10-24T00:53:01.505Z,1.15
2022-10-24T00:55:29.181Z,0.90
2022-10-24T00:57:55.762Z,1.10
2022-10-24T01:00:29.211Z,1.30
2022-10-24T01:02:55.863Z,2.05
2022-10-24T01:05:23.417Z,1.20
2022-10-24T01:08:05.854Z,1.60
2022-10-24T01:10:42.241Z,1.45
2022-10-24T01:13:21.009Z,1.08
2022-10-24T01:15:47.504Z,1.52
2022-10-24T01:18:38.125Z,1.42
2022-10-24T01:21:09.367Z,1.98
2022-10-24T01:23:45.049Z,2.25
2022-10-24T01:26:27.502Z,1.50
2022-10-24T01:29:18.620Z,1.35
2022-10-24T01:31:54.434Z,1.30
2022-10-24T01:34:26.437Z,1.25
2022-10-24T01:37:14.916Z,0.83
2022-10-24T01:39:47.562Z,1.02
2022-10-24T01:42:15.323Z,1.30
2022-10-24T01:44:44.748Z,1.38
2022-10-24T01:47:22.440Z,1.30
2022-10-24T01:50:00.944Z,1.08
2022-10-24T01:52:29.799Z,0.80
2022-10-24T01:54:56.374Z,0.98
2022-10-24T01:57:30.887Z,1.67
2022-10-24T01:59:57.469Z,1.10
2022-10-24T02:02:42.005Z,1.10
2022-10-24T02:05:14.747Z,1.33
2022-10-24T02:07:43.107Z,1.00
2022-10-24T02:10:12.851Z,1.73
2022-10-24T02:12:41.457Z,2.00
2022-10-24T02:15:15.081Z,1.50
2022-10-24T02:17:41.862Z,1.13
2022-10-24T02:20:09.222Z,1.00
2022-10-24T02:22:46.223Z,1.60
2022-10-24T02:25:25.016Z,1.58
2022-10-24T02:28:13.485Z,1.20
2022-10-24T02:30:42.836Z,1.30
2022-10-24T02:33:09.459Z,1.25
2022-10-24T02:35:36.313Z,1.20
2022-10-24T02:38:13.413Z,1.70
2022-10-24T02:40:41.217Z,1.48
2022-10-24T02:43:07.865Z,1.23
2022-10-24T02:45:35.678Z,1.05
2022-10-24T02:48:04.701Z,1.30
2022-10-24T02:50:31.496Z,1.30
2022-10-24T02:52:58.139Z,2.03
2022-10-24T02:55:24.864Z,1.35
2022-10-24T02:57:51.464Z,1.27
2022-10-24T03:00:18.790Z,2.03
2022-10-24T03:02:45.663Z,1.48
2022-10-24T03:05:12.495Z,1.77
2022-10-24T03:07:39.193Z,1.50
2022-10-24T03:10:06.184Z,1.25
2022-10-24T03:12:32.844Z,2.22
2022-10-24T03:14:59.496Z,1.58
2022-10-24T03:17:26.107Z,1.88
2022-10-24T03:19:52.663Z,1.48
2022-10-24T03:22:19.258Z,1.50
2022-10-24T03:24:55.115Z,1.92
2022-10-24T03:27:22.435Z,1.85
2022-10-24T03:29:49.068Z,1.30
2022-10-24T03:32:15.809Z,1.75
2022-10-24T03:34:42.471Z,1.50
2022-10-24T03:37:09.085Z,2.13
2022-10-24T03:39:35.756Z,2.25
2022-10-24T03:42:02.377Z,2.40
2022-10-24T03:44:28.987Z,1.73
2022-10-24T03:46:55.706Z,2.20
2022-10-24T03:49:22.345Z,1.95
2022-10-24T03:51:48.941Z,1.98
2022-10-24T03:54:15.594Z,2.20
2022-10-24T03:56:45.441Z,2.70
2022-10-24T03:59:12.061Z,2.10
2022-10-24T04:01:38.891Z,2.63
2022-10-24T04:04:05.693Z,1.95
2022-10-24T04:06:35.550Z,1.90
2022-10-24T04:09:03.796Z,2.00
2022-10-24T04:11:30.445Z,2.35
2022-10-24T04:13:57.168Z,1.88
2022-10-24T04:16:24.248Z,1.67
2022-10-24T04:18:51.415Z,1.58
2022-10-24T04:21:21.538Z,2.40
2022-10-24T04:23:48.821Z,2.35
2022-10-24T04:26:18.403Z,3.42
2022-10-24T04:28:46.944Z,1.75
2022-10-24T04:31:16.907Z,2.25
2022-10-24T04:33:46.173Z,2.10
2022-10-24T04:36:12.819Z,1.70
2022-10-24T04:38:39.430Z,2.00
2022-10-24T04:41:08.503Z,2.42
2022-10-24T04:43:37.913Z,1.80
2022-10-24T04:46:04.796Z,2.00
2022-10-24T04:48:31.400Z,1.58
2022-10-24T04:50:58.097Z,2.20
2022-10-24T04:53:24.817Z,2.13
2022-10-24T04:55:51.660Z,3.17
2022-10-24T04:58:18.419Z,2.30
2022-10-24T05:00:48.670Z,2.80
2022-10-24T05:03:16.757Z,1.85
2022-10-24T05:05:43.900Z,1.92
2022-10-24T05:08:10.519Z,1.63
2022-10-24T05:10:37.121Z,2.40
2022-10-24T05:13:03.819Z,1.77
2022-10-24T05:15:30.558Z,1.85
2022-10-24T05:17:58.301Z,3.78
2022-10-24T05:20:25.131Z,2.55
2022-10-24T05:22:51.852Z,1.88
2022-10-24T05:25:18.655Z,1.67
2022-10-24T05:27:45.336Z,2.55
2022-10-24T05:30:12.475Z,1.85
2022-10-24T05:32:39.849Z,1.92
2022-10-24T05:35:07.245Z,2.28
2022-10-24T05:37:33.877Z,2.05
2022-10-24T05:40:00.503Z,1.92
2022-10-24T05:42:27.140Z,2.40
2022-10-24T05:44:53.750Z,1.70
2022-10-24T05:47:20.701Z,2.30
2022-10-24T05:49:48.460Z,1.50
2022-10-24T05:52:15.056Z,1.90
2022-10-24T05:54:55.201Z,1.80
2022-10-24T05:57:30.065Z,2.63
2022-10-24T05:59:56.669Z,2.42
2022-10-24T06:02:23.433Z,2.20
2022-10-24T06:04:51.359Z,1.95
2022-10-24T06:07:18.724Z,2.50
2022-10-24T06:09:45.300Z,1.77
2022-10-24T06:12:12.055Z,2.15
2022-10-24T06:14:39.003Z,2.88
2022-10-24T06:17:06.357Z,3.45
2022-10-24T06:19:33.200Z,3.15
2022-10-24T06:21:59.796Z,3.00
2022-10-24T06:24:26.378Z,2.88
2022-10-24T06:26:52.973Z,1.98
2022-10-24T06:29:19.551Z,1.58
2022-10-24T06:31:46.142Z,2.17
2022-10-24T06:34:12.730Z,2.67
2022-10-24T06:39:10.873Z,2.45
2022-10-24T06:41:37.497Z,2.03
2022-10-24T06:44:06.702Z,2.47
2022-10-24T06:46:36.800Z,2.45
2022-10-24T06:49:03.419Z,2.70
2022-10-24T06:51:30.029Z,3.00
2022-10-24T06:53:57.946Z,2.45
2022-10-24T06:56:24.536Z,2.40
2022-10-24T06:58:51.113Z,3.50
2022-10-24T07:01:21.087Z,2.40
2022-10-24T07:03:48.165Z,2.05
2022-10-24T07:06:19.114Z,2.35
2022-10-24T07:08:45.914Z,2.08
2022-10-24T07:11:12.710Z,2.30
2022-10-24T07:13:39.346Z,2.40
2022-10-24T07:16:06.571Z,3.42
2022-10-24T07:18:33.200Z,3.35
2022-10-24T07:21:07.748Z,3.00
2022-10-24T07:23:34.876Z,3.65
2022-10-24T07:26:07.097Z,4.05
2022-10-24T07:28:34.183Z,3.15
2022-10-24T07:31:01.283Z,3.10
2022-10-24T07:33:28.056Z,2.90
2022-10-24T07:35:54.894Z,3.75
2022-10-24T07:38:22.391Z,3.00
2022-10-24T07:40:49.088Z,2.75
2022-10-24T07:43:15.859Z,2.78
2022-10-24T07:45:44.004Z,2.97
2022-10-24T07:48:13.253Z,2.78
2022-10-24T07:50:45.019Z,2.78
2022-10-24T07:53:12.202Z,3.22
2022-10-24T07:55:43.314Z,3.22
2022-10-24T07:58:11.458Z,2.60
2022-10-24T08:00:42.501Z,3.80
2022-10-24T08:03:11.503Z,2.53
2022-10-24T08:05:40.151Z,2.67
2022-10-24T08:10:53.627Z,2.42
2022-10-24T08:13:20.232Z,2.67
2022-10-24T08:15:46.942Z,2.13
2022-10-24T08:18:13.646Z,2.10
2022-10-24T08:20:40.361Z,3.10
2022-10-24T08:23:06.940Z,3.17
2022-10-24T08:25:33.614Z,2.55
2022-10-24T08:28:01.776Z,2.25
2022-10-24T08:30:30.618Z,2.67
2022-10-24T08:32:57.244Z,1.83
2022-10-24T08:35:23.957Z,1.80
2022-10-24T08:37:50.569Z,2.17
2022-10-24T08:40:19.264Z,1.70
2022-10-24T08:42:46.466Z,1.70
2022-10-24T08:45:17.719Z,2.38
2022-10-24T08:47:55.741Z,2.03
2022-10-24T08:50:25.655Z,2.20
2022-10-24T08:53:13.361Z,2.00
2022-10-24T08:55:49.337Z,2.13
2022-10-24T08:58:25.574Z,2.33
2022-10-24T09:00:54.475Z,2.33
2022-10-24T09:03:51.101Z,1.88
2022-10-24T09:06:23.370Z,2.25
2022-10-24T09:08:54.210Z,2.50
2022-10-24T09:11:45.813Z,2.45
2022-10-24T09:14:22.572Z,2.13
2022-10-24T09:16:54.078Z,1.80
2022-10-24T09:19:25.195Z,1.80
2022-10-24T09:21:53.164Z,1.70
2022-10-24T09:24:49.670Z,2.13
2022-10-24T09:27:19.683Z,2.03
2022-10-24T09:29:46.276Z,2.10
2022-10-24T09:32:21.061Z,2.28
2022-10-24T09:34:48.187Z,1.88
2022-10-24T09:37:42.708Z,2.85
2022-10-24T09:40:13.916Z,2.03
2022-10-24T09:42:41.104Z,2.10
2022-10-24T09:45:32.146Z,2.67
2022-10-24T09:48:05.139Z,1.95
2022-10-24T09:50:33.108Z,2.05
2022-10-24T09:52:59.724Z,2.20
2022-10-24T09:55:28.913Z,2.30
2022-10-24T09:57:58.153Z,2.50
2022-10-24T10:00:35.513Z,1.95
2022-10-24T10:03:07.508Z,1.80
2022-10-24T10:05:43.763Z,2.27
2022-10-24T10:08:27.831Z,1.95
2022-10-24T10:10:58.676Z,2.17
2022-10-24T10:13:27.301Z,2.65
2022-10-24T10:15:53.859Z,1.45
2022-10-24T10:18:20.370Z,2.25
2022-10-24T10:20:47.185Z,1.70
2022-10-24T10:23:24.665Z,1.85
2022-10-24T10:26:03.131Z,1.98
2022-10-24T10:28:29.956Z,1.58
2022-10-24T10:30:59.062Z,2.03
2022-10-24T10:33:56.801Z,2.05
2022-10-24T10:36:28.557Z,1.88
2022-10-24T10:39:04.532Z,1.95
2022-10-24T10:41:39.868Z,1.52
2022-10-24T10:44:32.562Z,1.48
2022-10-24T10:47:05.273Z,2.70
2022-10-24T10:49:39.997Z,1.60
2022-10-24T10:52:07.620Z,1.40
2022-10-24T10:54:57.323Z,1.60
2022-10-24T10:57:56.311Z,1.73
2022-10-24T11:00:35.132Z,1.52
2022-10-24T11:03:10.877Z,2.25
2022-10-24T11:05:37.440Z,1.85
2022-10-24T11:08:15.959Z,1.20
2022-10-24T11:10:49.646Z,1.20
2022-10-24T11:13:19.946Z,1.10
2022-10-24T11:15:48.291Z,1.80
2022-10-24T11:18:30.378Z,1.10
2022-10-24T11:21:05.917Z,1.08
2022-10-24T11:26:19.262Z,1.15
2022-10-24T11:29:07.101Z,1.38
2022-10-24T11:31:37.396Z,1.00
2022-10-24T11:34:10.027Z,2.05
2022-10-24T11:36:52.112Z,1.60
2022-10-24T11:39:38.712Z,1.00
2022-10-24T11:42:19.646Z,1.58
2022-10-24T11:44:57.180Z,1.17
2022-10-24T11:47:23.710Z,1.30
2022-10-24T11:50:01.467Z,0.85
2022-10-24T11:52:31.131Z,1.10
2022-10-24T11:55:19.663Z,1.17
2022-10-24T11:57:48.915Z,1.25
2022-10-24T12:00:28.222Z,0.88
2022-10-24T12:03:33.423Z,1.15
2022-10-24T12:06:24.739Z,0.85
2022-10-24T12:09:00.493Z,1.17
2022-10-24T12:11:35.391Z,0.93
2022-10-24T12:14:04.824Z,0.98
2022-10-24T12:17:13.305Z,1.00
2022-10-24T12:19:40.383Z,0.80
2022-10-24T12:22:07.041Z,1.20
2022-10-24T12:24:39.043Z,0.95
2022-10-24T12:27:07.300Z,1.50
2022-10-24T12:29:35.630Z,0.90
2022-10-24T12:32:41.620Z,1.00
2022-10-24T12:35:31.286Z,0.80
2022-10-24T12:37:58.498Z,0.80
2022-10-24T12:40:46.623Z,1.00
2022-10-24T12:43:17.632Z,1.40
2022-10-24T12:45:44.263Z,0.75
2022-10-24T12:48:25.243Z,0.95
2022-10-24T12:51:25.190Z,0.98
2022-10-24T12:54:13.551Z,1.08
2022-10-24T12:56:52.273Z,0.93
2022-10-24T12:59:25.322Z,0.88
2022-10-24T13:02:08.215Z,0.80
2022-10-24T13:04:56.708Z,0.93
2022-10-24T13:07:42.352Z,1.13
2022-10-24T13:10:31.262Z,0.90
2022-10-24T13:13:21.037Z,0.70
2022-10-24T13:15:47.583Z,1.10
2022-10-24T13:18:22.911Z,0.80
2022-10-24T13:20:50.409Z,0.70
2022-10-24T13:23:21.359Z,0.77
2022-10-24T13:25:49.023Z,0.70
2022-10-24T13:28:24.629Z,0.80
2022-10-24T13:31:00.074Z,0.77
2022-10-24T13:33:33.036Z,0.80
2022-10-24T13:36:16.349Z,0.85
2022-10-24T13:38:58.925Z,0.90
2022-10-24T13:41:35.606Z,0.57
2022-10-24T13:44:10.427Z,0.90
2022-10-24T13:46:54.863Z,1.13
2022-10-24T13:49:37.112Z,1.13
2022-10-24T13:52:09.461Z,0.70
2022-10-24T13:54:38.144Z,1.58
2022-10-24T13:57:28.556Z,0.95
2022-10-24T13:59:57.622Z,1.27
2022-10-24T14:02:28.398Z,1.10
2022-10-24T14:04:58.429Z,0.80
2022-10-24T14:07:30.364Z,0.68
2022-10-24T14:10:02.427Z,0.95
2022-10-24T14:12:31.131Z,1.73
2022-10-24T14:14:58.913Z,0.90
2022-10-24T14:17:35.867Z,1.25
2022-10-24T14:20:13.426Z,1.13
2022-10-24T14:22:41.074Z,1.10
2022-10-24T14:25:33.191Z,0.88
2022-10-24T14:28:02.087Z,1.13
2022-10-24T14:30:34.372Z,0.88
2022-10-24T14:33:15.493Z,0.98
2022-10-24T14:35:42.168Z,0.95
2022-10-24T14:38:10.719Z,1.00
2022-10-24T14:40:37.339Z,1.20
2022-10-24T14:43:04.158Z,1.10
2022-10-24T14:45:31.297Z,1.17
2022-10-24T14:48:00.638Z,1.77
2022-10-24T14:50:41.348Z,4.95
2022-10-24T14:53:25.138Z,2.25
2022-10-24T14:55:57.074Z,2.47
2022-10-24T14:58:29.711Z,2.07
2022-10-24T15:00:57.208Z,6.28
2022-10-24T15:03:25.543Z,1.60
2022-10-24T15:05:59.393Z,14.27
2022-10-24T15:08:51.169Z,18.90
2022-10-24T15:11:25.108Z,8.75
2022-10-24T15:14:06.730Z,2.05
2022-10-24T15:16:38.780Z,1.88
2022-10-24T15:19:06.224Z,1.60
2022-10-24T15:21:37.657Z,1.80
2022-10-24T15:24:04.936Z,1.60
2022-10-24T15:26:35.075Z,1.30
2022-10-24T15:29:08.737Z,1.52
2022-10-24T15:31:38.411Z,1.08
2022-10-24T15:34:07.559Z,1.30
2022-10-24T15:36:35.769Z,1.63
2022-10-24T15:39:10.555Z,6.85
2022-10-24T15:41:38.638Z,78.97
2022-10-24T15:44:23.633Z,138.23
2022-10-24T15:46:50.308Z,160.00
2022-10-24T15:49:17.436Z,105.90
2022-10-24T15:51:49.002Z,32.05
2022-10-24T15:56:43.588Z,106.70
2022-10-24T15:59:10.160Z,78.47
2022-10-24T16:01:40.718Z,31.85
2022-10-24T16:04:08.554Z,12.43
2022-10-24T16:06:35.208Z,3.78
2022-10-24T16:09:01.942Z,6.47
2022-10-24T16:11:29.188Z,6.13
2022-10-24T16:13:56.258Z,22.30
2022-10-24T16:16:23.088Z,38.83
2022-10-24T16:18:50.041Z,21.10
2022-10-24T16:21:19.079Z,27.63
2022-10-24T16:23:46.632Z,85.20
2022-10-24T16:26:13.334Z,91.57
2022-10-24T16:28:40.245Z,94.63
2022-10-24T16:31:06.966Z,68.07
2022-10-24T16:33:33.649Z,55.05
2022-10-24T16:36:00.422Z,71.32
2022-10-24T16:38:27.058Z,11.52
2022-10-24T16:40:54.183Z,5.60
2022-10-24T16:43:20.917Z,10.52
2022-10-24T16:45:59.708Z,11.50
2022-10-24T16:48:26.583Z,4.95
2022-10-24T16:50:53.228Z,3.58
2022-10-24T16:53:20.164Z,3.78
2022-10-24T16:55:52.942Z,3.13
2022-10-24T16:58:20.009Z,2.00
2022-10-24T17:00:47.516Z,1.95
2022-10-24T17:03:14.196Z,1.63
2022-10-24T17:05:41.013Z,2.17
2022-10-24T17:08:07.631Z,2.72
2022-10-24T17:10:34.261Z,2.53
2022-10-24T17:13:01.985Z,2.80
2022-10-24T17:15:28.591Z,2.60
2022-10-24T17:17:55.174Z,2.88
2022-10-24T17:20:21.760Z,72.65
2022-10-24T17:22:48.516Z,13.85
2022-10-24T17:25:24.597Z,6.50
2022-10-24T17:27:51.513Z,4.47
2022-10-24T17:30:21.124Z,2.83
2022-10-24T17:32:48.169Z,5.22
2022-10-24T17:35:17.499Z,5.40
2022-10-24T17:37:56.479Z,5.15
2022-10-24T17:40:26.108Z,7.50
2022-10-24T17:42:52.943Z,7.05
2022-10-24T17:45:21.607Z,5.90
2022-10-24T17:47:48.471Z,4.32
2022-10-24T17:50:15.544Z,4.38
2022-10-24T17:52:43.761Z,3.25
2022-10-24T17:55:41.032Z,3.00
2022-10-24T17:58:08.137Z,2.60
2022-10-24T18:00:34.853Z,2.33
2022-10-24T18:03:01.734Z,2.20
2022-10-24T18:05:29.889Z,2.30
2022-10-24T18:07:57.937Z,2.67
2022-10-24T18:10:24.711Z,3.40
2022-10-24T18:12:51.345Z,5.22
2022-10-24T18:15:19.552Z,8.07
2022-10-24T18:17:46.440Z,1.85
2022-10-24T18:20:15.611Z,1.40
2022-10-24T18:22:43.285Z,1.42
2022-10-24T18:25:11.124Z,3.95
2022-10-24T18:27:37.839Z,16.02
2022-10-24T18:30:05.557Z,9.18
2022-10-24T18:32:32.805Z,1.90
2022-10-24T18:34:59.618Z,2.25
2022-10-24T18:37:26.339Z,16.10
2022-10-24T18:39:53.652Z,34.55
2022-10-24T18:42:28.364Z,22.17
2022-10-24T18:44:55.236Z,42.25
2022-10-24T18:47:25.501Z,233.95
2022-10-24T18:49:52.925Z,104.97
2022-10-24T18:52:23.521Z,84.03
2022-10-24T18:55:02.099Z,23.98
2022-10-24T18:57:31.263Z,6.95
2022-10-24T19:00:01.126Z,6.38
2022-10-24T19:02:53.967Z,36.47
2022-10-24T19:05:30.357Z,24.60
2022-10-24T19:07:57.142Z,8.02
2022-10-24T19:10:25.649Z,7.60
2022-10-24T19:12:52.752Z,3.13
2022-10-24T19:15:19.907Z,5.93
2022-10-24T19:17:47.081Z,33.85
2022-10-24T19:20:19.445Z,32.58
2022-10-24T19:22:46.562Z,5.45
2022-10-24T19:25:14.391Z,5.38
2022-10-24T19:27:41.307Z,12.95
2022-10-24T19:30:08.797Z,11.23
2022-10-24T19:32:35.454Z,6.53
2022-10-24T19:35:02.067Z,6.80
2022-10-24T19:37:28.718Z,34.25
2022-10-24T19:39:55.307Z,9.60
2022-10-24T19:42:22.004Z,12.10
2022-10-24T19:44:54.077Z,6.88
2022-10-24T19:47:21.221Z,11.15
2022-10-24T19:49:48.686Z,3.67
2022-10-24T19:52:15.343Z,7.25
2022-10-24T19:54:41.915Z,2.78
2022-10-24T19:57:08.554Z,1.33
2022-10-24T19:59:36.159Z,1.20
2022-10-24T20:02:04.251Z,1.42
2022-10-24T20:04:31.163Z,1.40
2022-10-24T20:06:57.761Z,1.00
2022-10-24T20:09:24.370Z,1.58
2022-10-24T20:11:51.007Z,1.48
2022-10-24T20:14:17.697Z,1.42
2022-10-24T20:16:44.310Z,1.17
2022-10-24T20:19:10.894Z,2.10
2022-10-24T20:21:37.706Z,1.23
2022-10-24T20:24:04.608Z,1.20
2022-10-24T20:26:31.387Z,1.15
2022-10-24T20:28:58.361Z,1.27
2022-10-24T20:31:27.819Z,1.10
2022-10-24T20:33:57.928Z,1.00
2022-10-24T20:36:24.629Z,1.20
2022-10-24T20:38:51.283Z,1.38
2022-10-24T20:41:17.945Z,1.10
2022-10-24T20:43:44.667Z,1.30
2022-10-24T20:46:11.340Z,1.10
2022-10-24T20:48:38.120Z,1.10
2022-10-24T20:51:13.551Z,1.15
2022-10-24T20:53:40.929Z,1.08
2022-10-24T20:56:09.651Z,1.10
2022-10-24T20:58:37.547Z,0.93
2022-10-24T21:01:09.441Z,1.33
2022-10-24T21:03:36.631Z,1.20
2022-10-24T21:06:04.074Z,1.02
2022-10-24T21:08:30.882Z,1.45
2022-10-24T21:10:57.586Z,1.40
2022-10-24T21:13:24.155Z,0.90
2022-10-24T21:15:56.826Z,0.90
2022-10-24T21:18:23.405Z,0.80
2022-10-24T21:20:50.027Z,1.13
2022-10-24T21:23:16.639Z,0.85
2022-10-24T21:25:43.262Z,1.27
2022-10-24T21:28:09.850Z,0.98
2022-10-24T21:30:36.452Z,1.00
2022-10-24T21:33:03.082Z,1.30
2022-10-24T21:35:29.690Z,1.13
2022-10-24T21:37:56.257Z,0.70
2022-10-24T21:40:22.865Z,1.10
2022-10-24T21:42:50.194Z,1.35
2022-10-24T21:45:17.105Z,1.00
2022-10-24T21:47:44.027Z,1.05
2022-10-24T21:50:10.963Z,1.40
2022-10-24T21:52:37.683Z,0.98
2022-10-24T21:55:04.475Z,0.80
2022-10-24T21:57:31.103Z,1.23
2022-10-24T21:59:57.678Z,1.60
2022-10-24T22:02:24.496Z,1.85
2022-10-24T22:04:51.138Z,1.65
2022-10-24T22:07:17.790Z,1.10
2022-10-24T22:09:44.459Z,1.48
2022-10-24T22:12:11.061Z,1.42
2022-10-24T22:14:37.633Z,1.05
2022-10-24T22:17:04.233Z,1.73
2022-10-24T22:19:30.870Z,1.58
2022-10-24T22:21:57.491Z,0.90
2022-10-24T22:24:24.414Z,1.23
2022-10-24T22:26:51.659Z,1.02
2022-10-24T22:29:23.052Z,0.82
2022-10-24T22:31:50.943Z,0.80
2022-10-24T22:34:22.844Z,1.23
2022-10-24T22:37:11.264Z,1.15
2022-10-24T22:39:38.347Z,1.00
2022-10-24T22:42:13.569Z,1.20
2022-10-24T22:44:43.519Z,0.95
2022-10-24T22:47:16.890Z,1.20
2022-10-24T22:49:54.471Z,1.20
2022-10-24T22:52:21.280Z,1.13
2022-10-24T22:54:48.159Z,1.40
2022-10-24T22:57:14.969Z,1.17
2022-10-24T22:59:41.884Z,1.08
2022-10-24T23:02:17.250Z,1.40
2022-10-24T23:05:05.204Z,1.40
2022-10-24T23:07:51.682Z,1.00
2022-10-24T23:10:23.434Z,1.50
2022-10-24T23:12:50.414Z,1.40
2022-10-24T23:15:19.194Z,1.30
2022-10-24T23:17:46.514Z,1.40
2022-10-24T23:20:36.838Z,1.25
2022-10-24T23:23:16.537Z,1.30
2022-10-24T23:25:56.536Z,1.42
2022-10-24T23:28:38.130Z,1.35
2022-10-24T23:31:05.045Z,1.48
2022-10-24T23:33:31.936Z,1.23
2022-10-24T23:35:59.592Z,1.50
2022-10-24T23:38:26.927Z,1.30
2022-10-24T23:40:53.954Z,1.45
2022-10-24T23:43:22.071Z,1.17
2022-10-24T23:46:00.105Z,1.30
2022-10-24T23:48:45.573Z,1.05
2022-10-24T23:51:24.718Z,1.88
2022-10-24T23:53:53.521Z,1.30
2022-10-24T23:56:25.110Z,1.60
2022-10-24T23:58:52.090Z,1.60
